»·PEaware :: FFT2212 KSNA-KLAS

FFT2212 :: KSNA-KLAS

FLIGHT INFORMATION

Flight Status: Arrived
Operator:
Frontier Airlines
More flights by this operator :: More flights under this callsign
Pilot: Anonymous 7386 (7386)
Aircraft: AIRBUS A320
(A320)
More flights by this aircraft type
Origin: KSNA John Wayne-Orange Co
United States
Destination: KLAS McCarran Intl
United States
More flights between these airports :: More routes between these airports
Route: +FINZZ3 MISEN KEPEC6
File this flight plan on PilotEdge
Remarks:
Altitude:
(Current/Filed)
29,000ft
Speed:
(Current/Filed)
450kts
Departed: 21-Sep-20 09:09 AM
Arrived: 21-Sep-20 09:56 AM
Distance/Time
Traveled:
197nm/0:47
Distance/Time
To Go:
Arrived

Flight Plot

Page will automatically refresh every two minutes.

Flight plan parsing failed; only flown route is shown


Map Options




Map Legend


Flown Route
Filed Route
Departure Airport
Arrival Airport
Navaid (VOR, NDB)
Fix

Horizontal Profiles

Position Reports

Time Latitude Longitude Heading Altitude Ground
Speed
21-Sep-20 08:14 33.675349 -117.864828 118 65ft 0kts
21-Sep-20 08:15 33.675349 -117.864828 118 65ft 0kts
21-Sep-20 08:16 33.675349 -117.864828 118 65ft 0kts
21-Sep-20 08:17 33.675349 -117.864828 118 65ft 0kts
21-Sep-20 08:18 33.675349 -117.864828 118 65ft 0kts
21-Sep-20 08:19 33.675349 -117.864828 118 65ft 0kts
21-Sep-20 08:20 33.675349 -117.864828 118 65ft 0kts
21-Sep-20 08:21 33.675349 -117.864828 118 65ft 0kts
21-Sep-20 08:22 33.675349 -117.864828 118 65ft 0kts
21-Sep-20 08:23 33.675349 -117.864828 118 65ft 0kts
21-Sep-20 08:24 33.675349 -117.864828 118 65ft 0kts
21-Sep-20 08:25 33.675349 -117.864828 118 65ft 0kts
21-Sep-20 08:26 33.675349 -117.864828 118 65ft 0kts
21-Sep-20 08:27 33.675349 -117.864828 118 65ft 0kts
21-Sep-20 08:28 33.675349 -117.864828 118 65ft 0kts
21-Sep-20 08:29 33.675349 -117.864828 118 65ft 0kts
21-Sep-20 08:30 33.675349 -117.864828 118 65ft 0kts
21-Sep-20 08:31 33.675349 -117.864828 118 65ft 0kts
21-Sep-20 08:32 33.675349 -117.864828 118 65ft 0kts
21-Sep-20 08:33 33.675349 -117.864828 118 65ft 0kts
21-Sep-20 08:34 33.675349 -117.864828 118 65ft 0kts
21-Sep-20 08:35 33.675349 -117.864828 118 65ft 0kts
21-Sep-20 08:36 33.675349 -117.864828 118 65ft 0kts
21-Sep-20 08:37 33.675349 -117.864828 118 65ft 0kts
21-Sep-20 08:38 33.675349 -117.864828 118 65ft 0kts
21-Sep-20 08:39 33.675349 -117.864828 118 65ft 0kts
21-Sep-20 08:40 33.675349 -117.864828 118 65ft 0kts
21-Sep-20 08:41 33.675349 -117.864828 118 65ft 0kts
21-Sep-20 08:42 33.675349 -117.864828 118 65ft 0kts
21-Sep-20 08:43 33.675349 -117.864828 118 65ft 0kts
21-Sep-20 08:44 33.675349 -117.864828 118 65ft 0kts
21-Sep-20 08:45 33.675349 -117.864828 118 65ft 0kts
21-Sep-20 08:46 33.675349 -117.864828 118 65ft 0kts
21-Sep-20 08:47 33.675349 -117.864828 118 65ft 0kts
21-Sep-20 08:48 33.675349 -117.864828 118 65ft 0kts
21-Sep-20 08:49 33.675349 -117.864828 118 65ft 0kts
21-Sep-20 08:50 33.675349 -117.864828 118 65ft 0kts
21-Sep-20 08:51 33.675349 -117.864828 118 65ft 0kts
21-Sep-20 08:52 33.675349 -117.864828 118 65ft 0kts
21-Sep-20 08:53 33.675349 -117.864828 118 65ft 0kts
21-Sep-20 08:54 33.675349 -117.864828 118 65ft 0kts
21-Sep-20 08:55 33.675349 -117.864828 118 65ft 0kts
21-Sep-20 08:56 33.675349 -117.864828 118 65ft 0kts
21-Sep-20 08:57 33.675361 -117.864853 118 65ft 2kts
21-Sep-20 08:58 33.675600 -117.865431 81 65ft 2kts
21-Sep-20 08:59 33.675458 -117.865626 26 65ft 0kts
21-Sep-20 09:00 33.675458 -117.865626 26 65ft 0kts
21-Sep-20 09:01 33.675458 -117.865626 26 65ft 0kts
21-Sep-20 09:02 33.675471 -117.865618 26 65ft 1kts
21-Sep-20 09:03 33.676983 -117.864658 28 65ft 7kts
21-Sep-20 09:04 33.678645 -117.863592 27 65ft 6kts
21-Sep-20 09:05 33.680657 -117.863122 303 65ft 9kts
21-Sep-20 09:06 33.681119 -117.864131 297 65ft 0kts
21-Sep-20 09:07 33.681308 -117.865284 206 65ft 0kts
21-Sep-20 09:08 33.653494 -117.883062 208 1327ft 167kts
21-Sep-20 09:09 33.601834 -117.895479 185 3358ft 235kts
21-Sep-20 09:10 33.539895 -117.933040 224 5931ft 273kts
21-Sep-20 09:11 33.497130 -118.004355 270 7675ft 279kts
21-Sep-20 09:12 33.541467 -118.079756 312 8777ft 296kts
21-Sep-20 09:13 33.615740 -118.113950 24 10910ft 339kts
21-Sep-20 09:14 33.707901 -118.060427 26 12311ft 387kts
21-Sep-20 09:15 33.805725 -118.003536 26 14613ft 395kts
21-Sep-20 09:16 33.904860 -117.944551 32 16657ft 402kts
21-Sep-20 09:17 33.993968 -117.864672 37 17015ft 400kts
21-Sep-20 09:18 34.083331 -117.782102 42 18314ft 409kts
21-Sep-20 09:19 34.157519 -117.676409 51 19819ft 419kts
21-Sep-20 09:20 34.232175 -117.565475 50 21200ft 431kts
21-Sep-20 09:21 34.308333 -117.451943 50 22512ft 440kts
21-Sep-20 09:22 34.386218 -117.335444 51 23607ft 451kts
21-Sep-20 09:23 34.465803 -117.216003 51 24611ft 461kts
21-Sep-20 09:24 34.547179 -117.093476 50 25527ft 471kts
21-Sep-20 09:25 34.631580 -116.970810 48 26405ft 479kts
21-Sep-20 09:26 34.717453 -116.845386 48 27163ft 485kts
21-Sep-20 09:27 34.802844 -116.720192 48 26849ft 471kts
21-Sep-20 09:28 34.891116 -116.608961 37 25001ft 448kts
21-Sep-20 09:29 34.985096 -116.517981 38 24099ft 410kts
21-Sep-20 09:30 35.073283 -116.432225 38 24100ft 405kts
21-Sep-20 09:31 35.155533 -116.337308 45 24101ft 408kts
21-Sep-20 09:32 35.234577 -116.238249 45 23687ft 404kts
21-Sep-20 09:33 35.311986 -116.140944 45 21693ft 394kts
21-Sep-20 09:34 35.387437 -116.045802 45 19736ft 385kts
21-Sep-20 09:35 35.460683 -115.953179 45 17815ft 375kts
21-Sep-20 09:36 35.530917 -115.864139 46 15853ft 361kts
21-Sep-20 09:37 35.596168 -115.781237 46 14144ft 319kts
21-Sep-20 09:38 35.657275 -115.703289 46 13176ft 321kts
21-Sep-20 09:39 35.719002 -115.624413 46 13018ft 320kts
21-Sep-20 09:40 35.793369 -115.573072 1 13017ft 322kts
21-Sep-20 09:41 35.882453 -115.568447 1 13018ft 321kts
21-Sep-20 09:42 35.968526 -115.551047 42 12798ft 311kts
21-Sep-20 09:43 36.004476 -115.458502 69 11657ft 300kts
21-Sep-20 09:44 36.030227 -115.365280 95 10920ft 275kts
21-Sep-20 09:45 36.023457 -115.270108 97 9799ft 277kts
21-Sep-20 09:46 36.016752 -115.176690 96 8860ft 269kts
21-Sep-20 09:47 36.010877 -115.089239 96 7859ft 243kts
21-Sep-20 09:48 36.006096 -115.006309 95 6810ft 241kts
21-Sep-20 09:49 36.003055 -114.924501 74 5695ft 231kts
21-Sep-20 09:51 36.055009 -114.896719 344 5073ft 216kts
21-Sep-20 09:52 36.074013 -114.958992 269 4974ft 206kts
21-Sep-20 09:53 36.073545 -115.026246 270 3834ft 189kts
21-Sep-20 09:54 36.073619 -115.094590 269 2740ft 175kts
21-Sep-20 09:55 36.073633 -115.146651 269 2120ft 100kts
21-Sep-20 09:56 36.074748 -115.155243 304 2120ft 0kts
21-Sep-20 09:57 36.075560 -115.156436 317 2120ft 11kts
21-Sep-20 09:58 36.078010 -115.157845 69 2120ft 10kts
21-Sep-20 09:59 36.078045 -115.153197 90 2120ft 13kts
21-Sep-20 10:00 36.077951 -115.148635 70 2120ft 12kts
21-Sep-20 10:01 36.078342 -115.144645 94 2120ft 12kts
21-Sep-20 10:02 36.078302 -115.140436 74 2120ft 11kts
21-Sep-20 10:03 36.080256 -115.137488 63 2120ft 10kts
21-Sep-20 10:04 36.080890 -115.136767 34 2120ft 0kts

Navigation Log

Ident Type
Flight plan parsing failed, navigation log unavailable